Latest Weather Observations for Palmerville

IDQ60801

Issued at 12:05 pm EST Saturday 30 August 2014 (issued every 30 minutes, with the page automatically refreshed every 10 minutes)

About weather observations | Map of weather stations | Latest weather observations for QLD | Other Formats
Station Details ID: 028004 Name: PALMERVILLE Lat: -16.00 Lon: 144.08 Height: 203.8 m
Data from the previous 72 hours. | See also: Recent months at Palmerville
Date/Time
EST
Temp
°C
App
Temp
°C
Dew
Point
Rel
Hum
%
Delta-T
°C
Wind Press
QNH
hPa
Press
MSL
hPa
Rain
since 9 am
mm
Dir
 
Spd
km/h
Gust
km/h
Spd
kts
Gust
kts
30/12:00pm 28.0 26.0 11.5 35 9.5 ENE 13 20 7 11 1016.1 1015.2 0.0
30/11:30am 26.7 25.4 11.2 38 8.9 ENE 9 17 5 9 1016.6 1015.7 0.0
30/11:00am 26.1 24.5 11.4 39 8.4 ENE 11 17 6 9 1016.7 1015.8 0.0
30/10:30am 25.2 24.6 12.4 45 7.4 E 7 13 4 7 1017.2 1016.3 0.0
30/10:00am 23.6 23.4 12.9 51 6.2 ESE 6 9 3 5 1017.4 1016.5 0.0
30/09:30am 22.0 22.5 12.8 56 5.3 N 2 7 1 4 1017.1 1016.2 0.0
30/09:00am 20.7 20.9 13.2 62 4.3 ENE 4 9 2 5 1017.0 1016.1 0.0
30/08:30am 19.9 19.7 13.1 65 3.9 NNE 6 9 3 5 1017.0 1016.1 0.0
30/08:00am 18.7 18.7 12.5 67 3.5 ENE 4 7 2 4 1016.7 1015.8 0.0
30/07:30am 18.3 17.8 12.7 70 3.2 NE 7 9 4 5 1016.4 1015.5 0.0
30/07:00am 17.9 17.3 12.4 70 3.1 ENE 7 13 4 7 1016.2 1015.3 0.0
30/06:30am 17.5 16.8 12.0 70 3.1 E 7 13 4 7 1015.5 1014.6 0.0
30/06:00am 17.7 17.2 11.9 69 3.2 E 6 13 3 7 1015.5 1014.6 0.0
30/05:30am 17.3 17.3 12.4 73 2.7 ENE 4 9 2 5 1015.1 1014.2 0.0
30/05:00am 16.9 17.4 11.6 71 2.9 CALM 0 0 0 0 1015.0 1014.1 0.0
30/04:30am 17.0 17.5 11.5 70 3.0 CALM 0 0 0 0 1015.1 1014.2 0.0
30/04:00am 17.4 17.1 11.4 68 3.3 NW 4 7 2 4 1015.1 1014.2 0.0
30/03:30am 17.4 17.5 11.4 68 3.3 N 2 7 1 4 1015.1 1014.2 0.0
30/03:00am 17.6 16.8 11.2 66 3.5 E 6 9 3 5 1015.1 1014.2 0.0
30/02:30am 17.7 16.7 11.0 65 3.7 ENE 7 13 4 7 1015.3 1014.4 0.0
30/02:00am 18.0 17.4 11.6 66 3.5 E 6 11 3 6 1015.4 1014.5 0.0
30/01:30am 17.9 17.9 11.2 65 3.7 NE 2 7 1 4 1015.6 1014.7 0.0
30/01:00am 17.2 17.5 11.0 67 3.4 CALM 0 0 0 0 1015.9 1015.0 0.0
30/12:30am 18.3 18.6 10.9 62 4.0 CALM 0 7 0 4 1016.3 1015.4 0.0
30/12:00am 19.6 17.9 11.1 58 4.7 ESE 11 17 6 9 1016.5 1015.6 0.0
 
Date/Time
EST
Temp
°C
App
Temp
°C
Dew
Point
Rel
Hum
%
Delta-T
°C
Wind Press
QNH
hPa
Press
MSL
hPa
Rain
since 9 am
mm
Dir
 
Spd
km/h
Gust
km/h
Spd
kts
Gust
kts
29/11:30pm 19.5 18.6 11.3 59 4.5 ESE 7 13 4 7 1016.6 1015.7 0.0
29/11:00pm 20.0 18.4 11.5 58 4.7 E 11 19 6 10 1016.6 1015.7 0.0
29/10:30pm 20.0 18.7 11.2 57 4.9 E 9 15 5 8 1016.6 1015.7 0.0
29/10:00pm 20.7 18.6 11.3 55 5.2 E 13 20 7 11 1016.3 1015.4 0.0
29/09:30pm 21.0 18.9 11.3 54 5.4 E 13 20 7 11 1016.3 1015.4 0.0
29/09:00pm 21.3 19.3 11.6 54 5.4 E 13 20 7 11 1016.2 1015.3 0.0
29/08:30pm 22.0 20.1 11.7 52 5.8 E 13 22 7 12 1016.2 1015.3 0.0
29/08:00pm 22.5 20.4 11.3 49 6.3 ENE 13 20 7 11 1016.1 1015.2 0.0
29/07:30pm 23.1 20.8 10.5 45 7.0 ENE 13 24 7 13 1015.6 1014.7 0.0
29/07:00pm 24.0 21.3 10.3 42 7.6 ENE 15 20 8 11 1015.2 1014.3 0.0
29/06:30pm 24.7 22.3 11.3 43 7.6 NE 15 24 8 13 1014.6 1013.7 0.0
29/06:00pm 26.1 23.6 11.1 39 8.5 NE 15 22 8 12 1014.3 1013.4 0.0
29/05:30pm 27.7 24.9 10.0 33 10.0 ENE 15 24 8 13 1013.7 1012.7 0.0
29/05:00pm 28.8 26.1 9.0 29 11.0 NE 13 17 7 9 1013.4 1012.4 0.0
29/04:30pm 29.2 26.5 8.8 28 11.4 NE 13 20 7 11 1013.1 1012.1 0.0
29/04:00pm 30.0 27.1 6.6 23 12.6 NNE 11 17 6 9 1012.9 1012.0 0.0
29/03:30pm 30.1 27.0 7.3 24 12.4 NE 13 24 7 13 1013.1 1012.1 0.0
29/03:00pm 30.3 28.0 7.5 24 12.5 E 9 17 5 9 1013.4 1012.4 0.0
29/02:30pm 30.4 28.0 7.0 23 12.7 NE 9 19 5 10 1013.6 1012.6 0.0
29/02:00pm 30.9 28.0 6.7 22 13.1 NNE 11 20 6 11 1013.9 1012.9 0.0
29/01:30pm 30.3 27.3 6.2 22 12.9 NE 11 22 6 12 1014.2 1013.3 0.0
29/01:00pm 29.1 26.5 7.6 26 11.7 E 11 20 6 11 1014.5 1013.6 0.0
29/12:30pm 29.8 27.7 8.2 26 11.9 S 9 20 5 11 1015.2 1014.3 0.0
29/12:00pm 29.7 26.7 7.6 25 12.1 NE 13 19 7 10 1015.7 1014.8 0.0
29/11:30am 28.2 25.7 8.0 28 11.0 ENE 11 19 6 10 1016.2 1015.3 0.0
29/11:00am 27.5 24.5 7.9 29 10.6 ENE 13 20 7 11 1016.6 1015.7 0.0
29/10:30am 26.2 23.6 7.7 31 10.0 ENE 11 17 6 9 1016.8 1015.9 0.0
29/10:00am 24.8 21.9 8.3 35 8.9 E 13 22 7 12 1016.9 1016.0 0.0
29/09:30am 23.7 21.7 8.5 38 8.2 ENE 9 17 5 9 1017.0 1016.1 0.0
29/09:00am 21.2 19.6 8.8 45 6.6 NE 7 11 4 6 1016.9 1016.0 0.0
29/08:30am 18.6 17.0 8.6 52 5.2 ENE 7 11 4 6 1016.8 1015.9 0.0
29/08:00am 16.5 14.5 8.5 59 4.1 E 9 11 5 6 1016.7 1015.8 0.0
29/07:30am 13.9 11.9 8.5 70 2.7 E 9 15 5 8 1016.5 1015.6 0.0
29/07:00am 11.9 9.9 8.6 80 1.7 E 9 13 5 7 1016.4 1015.5 0.0
29/06:30am 12.0 10.4 8.8 81 1.6 E 7 11 4 6 1016.2 1015.3 0.0
29/06:00am 12.2 10.6 8.9 80 1.7 E 7 13 4 7 1016.0 1015.1 0.0
29/05:30am 12.4 10.9 8.5 77 2.0 E 6 11 3 6 1015.7 1014.8 0.0
29/05:00am 12.8 11.3 9.1 78 1.9 E 7 13 4 7 1015.5 1014.6 0.0
29/04:30am 12.8 11.1 8.5 75 2.2 ESE 7 9 4 5 1015.6 1014.7 0.0
29/04:00am 12.6 11.8 8.1 74 2.2 ESE 2 7 1 4 1015.6 1014.7 0.0
29/03:30am 13.4 11.6 8.0 70 2.7 E 7 9 4 5 1015.8 1014.9 0.0
29/03:00am 13.7 11.6 8.3 70 2.7 E 9 11 5 6 1015.8 1014.9 0.0
29/02:30am 13.3 11.7 8.0 70 2.6 NNE 6 7 3 4 1016.2 1015.3 0.0
29/02:00am 14.8 13.0 8.1 64 3.4 ENE 7 11 4 6 1016.3 1015.4 0.0
29/01:30am 15.7 14.0 8.2 61 3.8 ENE 7 11 4 6 1016.6 1015.7 0.0
29/01:00am 16.7 15.0 8.4 58 4.3 ENE 7 11 4 6 1016.7 1015.8 0.0
29/12:30am 17.0 15.3 8.2 56 4.5 E 7 9 4 5 1016.7 1015.8 0.0
29/12:00am 17.5 15.7 7.8 53 5.0 ESE 7 11 4 6 1016.7 1015.8 0.0
 
Date/Time
EST
Temp
°C
App
Temp
°C
Dew
Point
Rel
Hum
%
Delta-T
°C
Wind Press
QNH
hPa
Press
MSL
hPa
Rain
since 9 am
mm
Dir
 
Spd
km/h
Gust
km/h
Spd
kts
Gust
kts
28/11:30pm 18.0 16.1 7.7 51 5.3 E 7 11 4 6 1016.8 1015.9 0.0
28/11:00pm 18.3 16.4 7.7 50 5.4 E 7 11 4 6 1017.0 1016.1 0.0
28/10:30pm 19.0 17.1 7.4 47 5.9 E 7 11 4 6 1016.8 1015.9 0.0
28/10:00pm 20.1 18.5 7.8 45 6.4 NE 6 9 3 5 1016.8 1015.9 0.0
28/09:30pm 21.6 19.1 8.1 42 7.1 NNE 11 19 6 10 1016.6 1015.7 0.0
28/09:00pm 21.4 19.1 7.3 40 7.3 NE 9 13 5 7 1016.5 1015.6 0.0
28/08:30pm 23.3 20.4 6.6 34 8.7 ENE 11 15 6 8 1016.0 1015.1 0.0
28/08:00pm 24.3 20.9 6.1 31 9.4 NE 13 17 7 9 1015.5 1014.6 0.0
28/07:30pm 24.6 21.5 5.4 29 9.8 NE 11 19 6 10 1015.0 1014.1 0.0
28/07:00pm 24.1 21.3 3.4 26 10.2 NNE 7 11 4 6 1014.6 1013.7 0.0
28/06:30pm 26.3 23.5 2.9 22 11.6 ENE 7 11 4 6 1014.3 1013.4 0.0
28/06:00pm 28.7 25.2 1.3 17 13.4 N 9 15 5 8 1013.8 1012.8 0.0
28/05:30pm 30.7 28.5 -1.9 12 15.3 CALM 0 6 0 3 1013.2 1012.2 0.0
28/05:00pm 31.4 27.9 -2.6 11 15.8 NW 6 9 3 5 1012.8 1011.9 0.0
28/04:30pm 32.0 27.9 -3.4 10 16.3 SSE 9 15 5 8 1012.7 1011.8 0.0
28/04:00pm 31.5 27.8 -2.5 11 15.9 NNW 7 11 4 6 1012.6 1011.7 0.0
28/03:30pm 31.5 27.6 -1.3 12 15.6 W 9 17 5 9 1012.8 1011.9 0.0
28/03:00pm 31.6 27.7 -1.2 12 15.7 ESE 9 17 5 9 1013.1 1012.1 0.0
28/02:30pm 31.1 27.2 -1.6 12 15.5 NNE 9 15 5 8 1013.5 1012.5 0.0
28/02:00pm 30.7 27.3 -1.9 12 15.3 S 6 11 3 6 1014.0 1013.0 0.0
28/01:30pm 31.4 27.7 -0.3 13 15.3 S 9 15 5 8 1014.5 1013.6 0.0
28/01:00pm 30.4 26.7 -0.1 14 14.7 S 9 17 5 9 1014.9 1014.0 0.0
28/12:30pm 28.6 25.7 2.7 19 13.0 S 7 11 4 6 1015.5 1014.6 0.0
28/12:00pm 28.0 25.3 3.7 21 12.3 SE 7 13 4 7 1016.0 1015.1 0.0
28/11:30am 26.8 23.4 4.0 23 11.5 ESE 11 19 6 10 1016.5 1015.6 0.0
28/11:00am 26.2 23.0 5.2 26 10.8 E 11 20 6 11 1017.0 1016.1 0.0
28/10:30am 25.1 23.1 7.3 32 9.5 NE 7 13 4 7 1017.3 1016.4 0.0
28/10:00am 23.6 21.9 9.9 42 7.5 ENE 9 13 5 7 1017.6 1016.7 0.0
28/09:30am 22.0 20.5 10.5 48 6.4 ENE 9 13 5 7 1017.7 1016.8 0.0
28/09:00am 19.4 18.6 10.9 58 4.7 ESE 6 9 3 5 1017.6 1016.7 0.0
28/08:30am 18.1 17.6 11.9 67 3.4 E 6 9 3 5 1017.4 1016.5 0.0
28/08:00am 16.2 15.6 12.2 77 2.2 E 7 11 4 6 1017.4 1016.5 0.0
28/07:30am 14.1 14.0 12.1 88 1.1 ESE 4 7 2 4 1017.0 1016.1 0.0
28/07:00am 11.6 11.5 10.8 95 0.4 E 2 7 1 4 1016.9 1016.0 0.0
28/06:30am 11.4 11.3 10.9 97 0.3 WNW 2 6 1 3 1016.6 1015.7 0.0
28/06:00am 10.7 9.5 9.6 93 0.6 ENE 6 9 3 5 1016.2 1015.3 0.0
28/05:30am 11.3 11.2 9.6 89 0.9 CALM 0 0 0 0 1015.9 1015.0 0.0
28/05:00am 11.9 11.3 8.9 82 1.5 SE 2 6 1 3 1015.6 1014.7 0.0
28/04:30am 12.9 11.9 8.8 76 2.1 ESE 4 7 2 4 1015.5 1014.6 0.0
28/04:00am 14.1 12.6 9.1 72 2.6 E 7 11 4 6 1015.3 1014.4 0.0
28/03:30am 14.7 13.2 9.1 69 2.9 E 7 9 4 5 1015.1 1014.2 0.0
28/03:00am 14.7 13.4 9.3 70 2.8 NE 6 11 3 6 1015.3 1014.4 0.0
28/02:30am 15.3 14.4 9.2 67 3.2 NE 4 7 2 4 1015.5 1014.6 0.0
28/02:00am 16.0 14.3 8.5 61 3.9 ENE 7 11 4 6 1015.7 1014.8 0.0
28/01:30am 16.3 14.7 7.8 57 4.3 ENE 6 9 3 5 1016.0 1015.1 0.0
28/01:00am 16.9 15.1 8.1 56 4.5 E 7 13 4 7 1016.0 1015.1 0.0
28/12:30am 17.2 15.3 7.5 53 4.9 ENE 7 11 4 6 1016.1 1015.2 0.0
28/12:00am 17.6 15.9 8.2 54 4.8 E 7 13 4 7 1016.1 1015.2 0.0
 
Date/Time
EST
Temp
°C
App
Temp
°C
Dew
Point
Rel
Hum
%
Delta-T
°C
Wind Press
QNH
hPa
Press
MSL
hPa
Rain
since 9 am
mm
Dir
 
Spd
km/h
Gust
km/h
Spd
kts
Gust
kts
27/11:30pm 16.9 15.8 8.3 57 4.4 E 4 9 2 5 1016.4 1015.5 0.0
27/11:00pm 17.0 16.0 8.9 59 4.2 N 4 7 2 4 1016.2 1015.3 0.0
27/10:30pm 18.5 17.1 9.6 56 4.7 ENE 7 13 4 7 1015.9 1015.0 0.0
27/10:00pm 18.7 17.5 9.5 55 4.9 NE 6 9 3 5 1015.8 1014.9 0.0
27/09:30pm 19.5 18.1 8.8 50 5.7 NNE 6 9 3 5 1015.6 1014.7 0.0
27/09:00pm 21.1 19.7 9.0 46 6.5 ENE 6 9 3 5 1015.2 1014.3 0.0
27/08:30pm 23.0 21.0 8.7 40 7.7 N 9 13 5 7 1014.9 1014.0 0.0
27/08:00pm 24.4 21.6 8.4 36 8.6 NNE 13 22 7 12 1014.6 1013.7 0.0
27/07:30pm 24.1 20.9 5.0 29 9.7 NNE 11 15 6 8 1014.2 1013.3 0.0
27/07:00pm 25.1 23.6 3.1 24 10.8 CALM 0 0 0 0 1013.8 1012.8 0.0
27/06:30pm 26.2 23.3 2.8 22 11.5 NE 7 11 4 6 1013.4 1012.4 0.0
27/06:00pm 29.1 25.1 -2.1 13 14.4 WSW 9 19 5 10 1012.7 1011.8 0.0
27/05:30pm 30.9 27.4 -3.0 11 15.6 SSW 6 11 3 6 1012.4 1011.5 0.0
27/05:00pm 31.2 27.4 -5.4 9 16.2 NE 6 11 3 6 1012.2 1011.3 0.0
27/04:30pm 31.7 27.6 -6.6 8 16.7 ESE 7 19 4 10 1012.1 1011.2 0.0
27/04:00pm 31.7 27.4 -5.0 9 16.5 NE 9 19 5 10 1011.9 1011.0 0.0
27/03:30pm 32.0 27.9 -6.3 8 16.8 E 7 13 4 7 1011.9 1011.0 0.0
27/03:00pm 31.5 26.3 -6.7 8 16.6 ESE 13 19 7 10 1012.2 1011.3 0.0
27/02:30pm 31.2 27.2 -5.4 9 16.2 E 7 15 4 8 1012.5 1011.6 0.0
27/02:00pm 31.4 26.7 -5.2 9 16.3 ENE 11 20 6 11 1013.1 1012.1 0.0
27/01:30pm 30.6 25.6 -4.5 10 15.7 ESE 13 20 7 11 1013.7 1012.7 0.0
27/01:00pm 30.1 25.7 -2.4 12 15.0 SE 11 17 6 9 1014.3 1013.4 0.0
27/12:30pm 29.7 24.7 -3.9 11 15.1 E 13 24 7 13 1014.9 1014.0 0.0

Other Formats:

Comma delimited format used in spreadsheet applications
http://www.bom.gov.au/fwo/IDQ60801/IDQ60801.94276.axf

JavaScript Object Notation format (JSON) in row-major order
http://www.bom.gov.au/fwo/IDQ60801/IDQ60801.94276.json